createdAt,value
2023-04-08T00:04:52.532Z,1.85
2023-04-08T00:09:58.150Z,1.82
2023-04-08T00:15:06.384Z,1.80
2023-04-08T00:20:14.311Z,1.76
2023-04-08T00:25:23.386Z,1.70
2023-04-08T00:30:32.449Z,1.62
2023-04-08T00:35:40.552Z,1.57
2023-04-08T00:40:47.890Z,1.52
2023-04-08T00:45:53.473Z,1.48
2023-04-08T00:51:00.982Z,1.43
2023-04-08T00:56:09.717Z,1.32
2023-04-08T01:01:24.226Z,1.20
2023-04-08T01:06:42.794Z,1.13
2023-04-08T01:11:54.525Z,1.15
2023-04-08T01:17:03.822Z,1.14
2023-04-08T01:22:20.533Z,1.11
2023-04-08T01:30:15.564Z,1.08
2023-04-08T01:35:23.813Z,1.07
2023-04-08T01:40:32.908Z,1.10
2023-04-08T01:45:40.534Z,1.14
2023-04-08T01:50:51.677Z,1.13
2023-04-08T01:56:06.254Z,1.12
2023-04-08T02:01:18.847Z,1.12
2023-04-08T02:06:28.099Z,1.14
2023-04-08T02:11:35.363Z,1.16
2023-04-08T02:16:43.979Z,1.20
2023-04-08T02:21:56.922Z,1.19
2023-04-08T02:27:06.266Z,1.19
2023-04-08T02:32:14.417Z,1.26
2023-04-08T02:37:22.068Z,1.30
2023-04-08T02:42:29.406Z,1.32
2023-04-08T02:47:36.663Z,1.34
2023-04-08T02:52:45.221Z,1.37
2023-04-08T02:57:52.756Z,1.41
2023-04-08T03:03:00.400Z,1.44
2023-04-08T03:08:08.256Z,1.49
2023-04-08T03:13:16.478Z,1.50
2023-04-08T03:18:23.681Z,1.50
2023-04-08T03:23:31.337Z,1.47
2023-04-08T03:28:38.565Z,1.44
2023-04-08T03:33:46.038Z,1.44
2023-04-08T03:38:52.008Z,1.45
2023-04-08T03:43:59.693Z,1.44
2023-04-08T03:49:05.315Z,1.39
2023-04-08T03:54:12.587Z,1.35
2023-04-08T03:59:18.141Z,1.31
2023-04-08T04:04:26.176Z,1.32
2023-04-08T04:09:33.862Z,1.33
2023-04-08T04:14:41.280Z,1.31
2023-04-08T04:19:48.485Z,1.29
2023-04-08T04:24:54.146Z,1.30
2023-04-08T04:30:03.530Z,1.29
2023-04-08T04:35:12.177Z,1.26
2023-04-08T04:40:19.943Z,1.27
2023-04-08T04:48:11.894Z,1.35
2023-04-08T04:53:19.142Z,1.36
2023-04-08T04:58:24.704Z,1.36
2023-04-08T05:03:33.027Z,1.35
2023-04-08T05:08:40.356Z,1.37
2023-04-08T05:13:47.722Z,1.43
2023-04-08T05:18:54.830Z,1.50
2023-04-08T05:24:02.032Z,1.54
2023-04-08T05:29:07.878Z,1.57
2023-04-08T05:34:16.018Z,1.60
2023-04-08T05:39:23.332Z,1.61
2023-04-08T05:44:31.461Z,1.68
2023-04-08T05:49:39.171Z,1.75
2023-04-08T05:54:47.657Z,1.86
2023-04-08T05:59:54.902Z,1.94
2023-04-08T06:05:00.507Z,2.00
2023-04-08T06:10:10.112Z,2.05
2023-04-08T06:15:18.083Z,2.09
2023-04-08T06:20:28.658Z,2.13
2023-04-08T06:25:36.315Z,2.21
2023-04-08T06:30:43.636Z,2.27
2023-04-08T06:35:50.864Z,2.32
2023-04-08T06:40:59.286Z,2.45
2023-04-08T06:46:07.701Z,2.50
2023-04-08T06:51:15.039Z,2.54
2023-04-08T06:56:22.052Z,2.63
2023-04-08T07:01:30.223Z,2.69
2023-04-08T07:06:37.776Z,2.78
2023-04-08T07:11:44.906Z,2.91
2023-04-08T07:16:52.310Z,3.04
2023-04-08T07:21:59.570Z,3.18
2023-04-08T07:27:05.562Z,3.31
2023-04-08T07:32:13.036Z,3.35
2023-04-08T07:37:20.749Z,3.45
2023-04-08T07:42:29.296Z,3.52
2023-04-08T07:47:37.702Z,3.54
2023-04-08T07:52:45.292Z,3.59
2023-04-08T07:57:50.789Z,3.67
2023-04-08T08:02:58.350Z,3.67
2023-04-08T08:08:07.715Z,3.69
2023-04-08T08:13:46.940Z,3.81
2023-04-08T08:18:50.758Z,3.90
2023-04-08T08:23:54.556Z,3.96
2023-04-08T08:28:58.583Z,3.97
2023-04-08T08:34:03.091Z,4.00
2023-04-08T08:39:07.281Z,4.04
2023-04-08T08:44:11.947Z,4.06
2023-04-08T08:49:16.097Z,4.07
2023-04-08T08:54:20.453Z,4.09
2023-04-08T08:59:24.351Z,4.15
2023-04-08T09:04:28.198Z,4.25
2023-04-08T09:09:49.597Z,4.38
2023-04-08T09:15:05.007Z,4.56
2023-04-08T09:20:11.702Z,4.83
2023-04-08T09:25:25.997Z,4.97
2023-04-08T09:30:32.414Z,5.10
2023-04-08T09:35:36.650Z,5.17
2023-04-08T09:40:43.286Z,5.28
2023-04-08T09:45:47.993Z,5.27
2023-04-08T09:50:57.587Z,5.19
2023-04-08T09:56:03.090Z,5.15
2023-04-08T10:01:09.877Z,5.10
2023-04-08T10:06:15.130Z,5.09
2023-04-08T10:11:19.152Z,5.04
2023-04-08T10:16:26.980Z,5.01
2023-04-08T10:21:36.540Z,4.95
2023-04-08T10:26:42.464Z,4.86
2023-04-08T10:31:47.131Z,4.73
2023-04-08T10:36:52.509Z,4.76
2023-04-08T10:41:56.612Z,4.87
2023-04-08T10:47:00.975Z,4.88
2023-04-08T10:52:09.561Z,4.79
2023-04-08T10:57:14.456Z,4.79
2023-04-08T11:02:18.763Z,4.78
2023-04-08T11:07:25.631Z,4.75
2023-04-08T11:12:29.535Z,4.73
2023-04-08T11:17:37.134Z,4.70
2023-04-08T11:22:41.592Z,4.73
2023-04-08T11:27:46.213Z,4.72
2023-04-08T11:32:50.453Z,4.72
2023-04-08T11:37:54.858Z,4.73
2023-04-08T11:42:59.814Z,4.74
2023-04-08T11:48:10.713Z,4.74
2023-04-08T11:53:19.915Z,4.74
2023-04-08T11:58:23.564Z,4.72
2023-04-08T12:03:27.283Z,4.64
2023-04-08T12:08:31.246Z,4.64
2023-04-08T12:13:35.712Z,4.65
2023-04-08T12:18:39.817Z,4.68
2023-04-08T12:23:43.819Z,4.75
2023-04-08T12:28:47.639Z,4.78
2023-04-08T12:33:52.064Z,4.85
2023-04-08T12:38:55.941Z,4.93
2023-04-08T12:44:00.701Z,4.96
2023-04-08T12:49:06.095Z,5.03
2023-04-08T12:54:10.546Z,5.08
2023-04-08T12:59:14.578Z,5.09
2023-04-08T13:04:19.425Z,5.07
2023-04-08T13:09:23.455Z,5.13
2023-04-08T13:14:28.311Z,5.19
2023-04-08T13:19:32.537Z,5.23
2023-04-08T13:24:37.179Z,5.25
2023-04-08T13:29:40.970Z,5.28
2023-04-08T13:34:44.863Z,5.35
2023-04-08T13:39:48.609Z,5.40
2023-04-08T13:44:52.488Z,5.53
2023-04-08T13:49:56.703Z,5.65
2023-04-08T13:55:01.148Z,5.74
2023-04-08T14:00:07.996Z,5.79
2023-04-08T14:05:11.859Z,5.79
2023-04-08T14:10:17.244Z,5.83
2023-04-08T14:15:21.262Z,5.90
2023-04-08T14:20:25.386Z,5.95
2023-04-08T14:25:29.317Z,6.02
2023-04-08T14:30:35.231Z,6.09
2023-04-08T14:35:39.010Z,6.12
2023-04-08T14:40:42.709Z,6.13
2023-04-08T14:45:46.423Z,6.13
2023-04-08T14:54:58.186Z,6.11
2023-04-08T15:00:06.804Z,6.08
2023-04-08T15:05:14.418Z,6.09
2023-04-08T15:10:22.733Z,6.07
2023-04-08T15:15:31.054Z,6.05
2023-04-08T15:20:38.551Z,6.05
2023-04-08T15:25:45.922Z,6.08
2023-04-08T15:30:53.770Z,6.09
2023-04-08T15:36:04.292Z,6.09
2023-04-08T15:41:19.481Z,6.07
2023-04-08T15:46:27.349Z,6.11
2023-04-08T16:01:45.593Z,6.16
2023-04-08T16:06:53.605Z,6.13
2023-04-08T16:12:01.311Z,6.11
2023-04-08T16:17:09.488Z,6.06
2023-04-08T16:22:16.693Z,6.03
2023-04-08T16:27:22.153Z,5.99
2023-04-08T16:32:29.386Z,6.02
2023-04-08T16:37:35.327Z,6.04
2023-04-08T16:42:43.142Z,6.01
2023-04-08T19:07:49.362Z,6.63
2023-04-08T19:12:56.961Z,6.41
2023-04-08T19:18:04.344Z,6.20
2023-04-08T19:23:11.869Z,6.03
2023-04-08T19:28:19.301Z,5.93
2023-04-08T19:33:27.991Z,5.79
2023-04-08T19:38:35.463Z,5.58
2023-04-08T19:43:42.988Z,5.38
2023-04-08T19:48:50.797Z,5.21
2023-04-08T19:53:58.746Z,5.12
2023-04-08T19:59:06.496Z,5.09
2023-04-08T20:04:14.654Z,5.10
2023-04-08T20:09:25.278Z,5.10
2023-04-08T20:14:33.161Z,5.11
2023-04-08T20:19:41.587Z,5.15
2023-04-08T20:24:49.167Z,5.17
2023-04-08T20:29:57.655Z,5.15
2023-04-08T20:35:05.380Z,5.10
2023-04-08T20:40:18.338Z,5.08
2023-04-08T20:45:29.034Z,5.07
2023-04-08T20:52:27.361Z,5.12
2023-04-08T20:57:35.550Z,5.10
2023-04-08T21:02:42.978Z,5.02
2023-04-08T21:07:50.381Z,4.93
2023-04-08T21:12:58.765Z,4.89
2023-04-08T21:18:20.497Z,4.91
2023-04-08T21:23:28.426Z,4.94
2023-04-08T21:28:36.043Z,4.94
2023-04-08T21:33:44.090Z,4.85
2023-04-08T21:38:51.680Z,4.72
2023-04-08T21:43:59.465Z,4.63
2023-04-08T21:49:06.973Z,4.55
2023-04-08T21:54:14.329Z,4.51
2023-04-08T22:04:13.577Z,4.41
2023-04-08T22:09:21.312Z,4.32
2023-04-08T22:14:28.962Z,4.27
2023-04-08T22:19:36.503Z,4.25
2023-04-08T22:24:44.051Z,4.33
2023-04-08T22:29:51.596Z,4.41
2023-04-08T22:35:00.311Z,4.38
2023-04-08T22:40:09.534Z,4.35
2023-04-08T22:45:16.831Z,4.34
2023-04-08T22:52:42.308Z,4.24
2023-04-08T22:57:50.342Z,4.19
2023-04-08T23:02:58.082Z,4.11
2023-04-08T23:08:05.742Z,3.96
2023-04-08T23:13:14.437Z,3.91
2023-04-08T23:18:24.119Z,3.94
2023-04-08T23:23:31.846Z,4.02
2023-04-08T23:28:39.816Z,4.05
2023-04-08T23:33:47.499Z,4.03
2023-04-08T23:38:56.612Z,4.03
2023-04-08T23:44:04.241Z,4.00
2023-04-08T23:49:12.058Z,3.97
2023-04-08T23:54:19.552Z,3.89
2023-04-08T23:59:29.037Z,3.83
